Time;durP1;ratioP1;P1;durP2;ratioP2;P2;SDS_P1;SDS_P2;PMS_P1;PMS_P2;Temp;Humidity;BMP_temperature;BMP_pressure;BME280_temperature;BME280_humidity;BME280_pressure;Samples;Min_cycle;Max_cycle;Signal;HPM_P1;HPM_P2
2022/11/04 00:00:07;;;;;;;5.88;1.45;;;;;;;11.62;100.00;99898.41;2616512;36;20066;-54
2022/11/04 00:02:38;;;;;;;3.78;1.60;;;;;;;11.50;100.00;99912.19;2616569;31;20035;-54
2022/11/04 00:05:07;;;;;;;4.88;1.40;;;;;;;11.60;100.00;99908.50;2615841;31;20663;-57
2022/11/04 00:10:16;;;;;;;4.38;1.50;;;;;;;11.58;100.00;99927.53;2616207;36;20392;-52
2022/11/04 00:12:41;;;;;;;4.40;1.50;;;;;;;11.39;100.00;99926.84;2616128;36;20019;-56
2022/11/04 00:18:00;;;;;;;3.40;1.60;;;;;;;11.48;100.00;99937.63;2614841;36;20069;-50
2022/11/04 00:28:45;;;;;;;2.08;1.10;;;;;;;11.53;100.00;99937.97;2616518;31;20073;-52
2022/11/04 00:33:59;;;;;;;5.30;1.35;;;;;;;11.47;100.00;99950.25;2613929;36;20026;-54
2022/11/04 00:36:28;;;;;;;5.28;1.60;;;;;;;11.48;100.00;99946.53;2609753;36;20023;-50
2022/11/04 00:38:57;;;;;;;4.55;2.03;;;;;;;11.55;100.00;99961.03;2613835;36;20034;-54
2022/11/04 00:41:29;;;;;;;3.88;1.40;;;;;;;11.62;100.00;99969.31;2614459;36;20118;-50
2022/11/04 00:43:59;;;;;;;4.30;1.88;;;;;;;11.67;100.00;99966.13;2615429;36;20023;-54
2022/11/04 00:46:29;;;;;;;4.68;1.55;;;;;;;11.71;100.00;99962.09;2616144;36;20023;-55
2022/11/04 00:49:00;;;;;;;5.70;1.90;;;;;;;11.71;100.00;99967.50;2615797;36;20022;-53
2022/11/04 00:51:29;;;;;;;4.10;1.80;;;;;;;11.65;100.00;99973.56;2615876;36;20117;-55
2022/11/04 00:53:59;;;;;;;6.38;2.38;;;;;;;11.65;100.00;99968.16;2616686;36;20030;-52
2022/11/04 00:56:27;;;;;;;6.00;2.03;;;;;;;11.56;100.00;99984.31;2616281;36;20030;-57
2022/11/04 00:58:56;;;;;;;5.88;2.05;;;;;;;11.52;100.00;99980.25;2616606;36;20129;-55
2022/11/04 01:01:24;;;;;;;6.03;1.90;;;;;;;11.45;100.00;99987.28;2614735;36;20034;-58
2022/11/04 01:03:54;;;;;;;4.63;1.70;;;;;;;11.49;100.00;99988.66;2616386;36;20034;-52
2022/11/04 01:06:27;;;;;;;2.63;1.40;;;;;;;11.51;100.00;99993.88;2616400;36;20029;-54
2022/11/04 01:08:57;;;;;;;9.00;2.17;;;;;;;11.49;100.00;99988.66;2616246;36;20026;-59
2022/11/04 01:11:27;;;;;;;7.05;1.80;;;;;;;11.47;100.00;99997.91;2616558;36;20034;-55
2022/11/04 01:13:55;;;;;;;7.43;1.83;;;;;;;11.39;100.00;100004.09;2616107;36;20026;-56
2022/11/04 01:16:24;;;;;;;4.35;1.33;;;;;;;11.39;100.00;100002.28;2616243;31;20035;-53
2022/11/04 01:18:52;;;;;;;2.70;1.45;;;;;;;11.39;100.00;100012.19;2616046;36;20026;-58
2022/11/04 01:21:21;;;;;;;2.63;1.20;;;;;;;11.38;100.00;100014.06;2615966;36;20034;-54
2022/11/04 01:23:52;;;;;;;4.30;1.33;;;;;;;11.41;100.00;100015.59;2616788;31;20023;-54
2022/11/04 01:26:22;;;;;;;2.05;1.25;;;;;;;11.49;100.00;100012.91;2615058;36;20045;-52
2022/11/04 01:28:59;;;;;;;7.10;2.15;;;;;;;11.33;100.00;100023.63;2615580;36;20030;-53
2022/11/04 01:31:29;;;;;;;5.45;2.08;;;;;;;11.42;100.00;100029.91;2614723;36;20158;-50
2022/11/04 01:33:58;;;;;;;5.50;2.15;;;;;;;11.60;100.00;100029.78;2615310;36;20061;-52
2022/11/04 01:36:27;;;;;;;3.55;2.22;;;;;;;11.55;100.00;100030.28;2615971;36;20027;-53
2022/11/04 01:38:59;;;;;;;5.30;2.72;;;;;;;11.47;100.00;100041.88;2616739;36;20034;-57
2022/11/04 01:41:35;;;;;;;7.97;2.28;;;;;;;11.36;100.00;100042.16;2616000;36;20030;-53
2022/11/04 01:44:05;;;;;;;5.78;2.20;;;;;;;11.45;100.00;100046.56;2615919;36;20022;-52
2022/11/04 01:46:41;;;;;;;3.78;1.65;;;;;;;11.47;100.00;100057.19;2615127;31;20058;-49
2022/11/04 01:49:24;;;;;;;3.83;1.55;;;;;;;11.39;100.00;100066.06;2616154;36;20022;-52
2022/11/04 01:51:56;;;;;;;2.10;1.20;;;;;;;11.37;100.00;100060.84;2615405;36;20039;-56
2022/11/04 01:54:27;;;;;;;3.40;1.23;;;;;;;11.39;100.00;100066.06;2615908;36;20038;-56
2022/11/04 01:56:57;;;;;;;2.38;0.82;;;;;;;11.29;100.00;100065.34;2615975;36;20022;-51
2022/11/04 01:59:29;;;;;;;5.57;1.10;;;;;;;11.31;100.00;100074.13;2616429;36;20416;-54
2022/11/04 02:01:58;;;;;;;4.15;0.80;;;;;;;11.29;100.00;100076.13;2614924;36;20030;-51
2022/11/04 02:04:29;;;;;;;3.08;1.00;;;;;;;11.19;100.00;100085.19;2617199;31;20046;-53
2022/11/04 02:06:59;;;;;;;2.45;0.80;;;;;;;11.25;100.00;100083.69;2616345;36;20531;-52
2022/11/04 02:09:33;;;;;;;4.13;1.23;;;;;;;11.37;100.00;100085.09;2617178;36;20416;-51
2022/11/04 02:14:43;;;;;;;4.65;1.05;;;;;;;11.30;100.00;100105.59;2616888;31;20038;-57
2022/11/04 02:17:19;;;;;;;;;;;;;;;11.38;100.00;100099.41;2614733;36;20487;-53
2022/11/04 02:20:04;;;;;;;2.00;0.70;;;;;;;11.36;100.00;100093.34;2615789;36;19939;-53
2022/11/04 02:23:09;;;;;;;3.47;1.00;;;;;;;11.26;100.00;100101.53;2614551;36;20126;-54
2022/11/04 02:26:12;;;;;;;2.53;0.80;;;;;;;11.20;100.00;100108.44;2616279;36;20428;-53
2022/11/04 02:29:21;;;;;;;2.05;0.77;;;;;;;11.21;100.00;100118.16;2615596;36;20044;-54
2022/11/04 02:32:03;;;;;;;1.73;0.98;;;;;;;11.26;100.00;100125.78;2613800;36;20022;-55
2022/11/04 02:34:40;;;;;;;4.53;0.90;;;;;;;11.27;100.00;100121.25;2616112;36;20034;-55
2022/11/04 02:37:17;;;;;;;2.42;1.00;;;;;;;11.30;100.00;100131.72;2614192;36;20145;-54
2022/11/04 02:39:53;;;;;;;2.80;1.00;;;;;;;11.31;100.00;100134.25;2616590;36;20559;-52
2022/11/04 02:42:29;;;;;;;2.50;1.17;;;;;;;11.39;100.00;100141.53;2616183;36;20053;-49
2022/11/04 02:45:10;;;;;;;3.55;1.88;;;;;;;11.33;100.00;100136.78;2615075;36;20027;-54
2022/11/04 02:47:46;;;;;;;3.75;2.42;;;;;;;11.20;100.00;100132.66;2613878;36;20022;-50
2022/11/04 02:50:22;;;;;;;4.32;2.13;;;;;;;11.26;100.00;100127.63;2615482;36;20566;-53
2022/11/04 02:52:59;;;;;;;2.85;1.73;;;;;;;11.28;100.00;100134.56;2616646;36;20416;-55
2022/11/04 02:55:30;;;;;;;6.40;1.83;;;;;;;11.07;100.00;100140.31;2615988;36;20027;-51
2022/11/04 02:58:03;;;;;;;2.40;1.52;;;;;;;11.15;100.00;100140.34;2616314;31;20035;-55
2022/11/04 03:00:33;;;;;;;4.13;1.55;;;;;;;11.11;100.00;100154.31;2615431;36;20053;-50
2022/11/04 03:03:10;;;;;;;4.80;1.40;;;;;;;11.05;100.00;100151.22;2615617;36;20033;-54
2022/11/04 03:05:42;;;;;;;3.58;1.27;;;;;;;11.00;100.00;100153.56;2616834;36;20103;-52
2022/11/04 03:08:16;;;;;;;1.80;1.08;;;;;;;10.97;100.00;100161.09;2615315;36;20023;-55
2022/11/04 03:10:49;;;;;;;2.13;0.93;;;;;;;10.94;100.00;100170.34;2615916;36;20034;-52
2022/11/04 03:13:21;;;;;;;2.53;1.00;;;;;;;10.87;100.00;100170.09;2616925;36;20034;-51
2022/11/04 03:15:55;;;;;;;1.25;0.93;;;;;;;10.85;100.00;100172.09;2616573;36;20507;-58
2022/11/04 03:18:34;;;;;;;3.25;1.30;;;;;;;10.79;100.00;100179.94;2615883;36;20053;-55
2022/11/04 03:21:07;;;;;;;3.38;1.30;;;;;;;10.82;100.00;100187.72;2617129;31;20030;-57
2022/11/04 03:23:36;;;;;;;3.83;1.63;;;;;;;10.87;100.00;100194.31;2617278;31;20022;-53
2022/11/04 03:26:14;;;;;;;4.13;1.73;;;;;;;10.93;100.00;100192.03;2617201;36;20022;-56
2022/11/04 03:28:49;;;;;;;2.90;1.60;;;;;;;10.89;100.00;100204.09;2617081;36;20034;-54
2022/11/04 03:31:24;;;;;;;2.95;1.50;;;;;;;10.90;100.00;100203.13;2615512;36;20035;-53
2022/11/04 03:33:57;;;;;;;3.95;1.55;;;;;;;10.93;100.00;100208.19;2616439;36;20027;-55
2022/11/04 03:36:27;;;;;;;2.85;1.63;;;;;;;10.85;100.00;100209.78;2617975;31;20026;-51
2022/11/04 03:38:55;;;;;;;4.90;1.42;;;;;;;10.94;100.00;100212.53;2616214;36;20034;-55
2022/11/04 03:41:30;;;;;;;3.37;1.57;;;;;;;10.88;100.00;100214.03;2615878;31;20045;-53
2022/11/04 03:43:58;;;;;;;2.70;1.30;;;;;;;10.92;100.00;100214.56;2616236;36;20741;-53
2022/11/04 03:46:27;;;;;;;2.85;1.80;;;;;;;10.83;100.00;100214.47;2615670;36;20022;-55
2022/11/04 03:49:00;;;;;;;3.22;1.40;;;;;;;10.75;100.00;100217.09;2616437;36;20562;-54
2022/11/04 03:51:29;;;;;;;2.38;0.95;;;;;;;10.78;100.00;100219.47;2615731;36;20046;-54
2022/11/04 03:54:00;;;;;;;3.60;1.37;;;;;;;10.65;100.00;100224.41;2615627;54;20038;-56
2022/11/04 03:56:57;;;;;;;3.20;1.00;;;;;;;10.67;100.00;100225.09;2617162;31;20030;-55
2022/11/04 03:59:42;;;;;;;2.33;1.17;;;;;;;10.51;100.00;100223.94;2617338;31;20034;-51
2022/11/04 04:02:17;;;;;;;2.03;1.05;;;;;;;10.54;100.00;100227.28;2615167;31;20105;-50
2022/11/04 04:04:57;;;;;;;2.15;0.95;;;;;;;10.44;100.00;100240.84;2617240;36;20018;-54
2022/11/04 04:07:31;;;;;;;3.03;1.27;;;;;;;10.41;100.00;100233.91;2616758;36;20034;-50
2022/11/04 04:10:37;;;;;;;2.83;0.88;;;;;;;10.33;100.00;100225.69;2616329;36;20627;-54
2022/11/04 04:13:00;;;;;;;1.60;0.90;;;;;;;10.33;100.00;100228.38;2616523;36;20027;-51
2022/11/04 04:15:33;;;;;;;2.75;1.00;;;;;;;10.01;100.00;100232.34;2615924;36;20030;-58
2022/11/04 04:18:07;;;;;;;4.75;1.13;;;;;;;9.96;100.00;100234.66;2613781;36;20038;-53
2022/11/04 04:20:41;;;;;;;2.35;1.52;;;;;;;9.84;100.00;100233.97;2617003;36;20038;-51
2022/11/04 04:28:39;;;;;;;5.90;2.53;;;;;;;9.89;100.00;100247.81;2615838;36;20643;-53
2022/11/04 04:31:09;;;;;;;4.90;2.22;;;;;;;9.78;100.00;100253.38;2613306;36;20031;-51
2022/11/04 04:33:37;;;;;;;5.32;2.85;;;;;;;9.84;100.00;100257.34;2615985;36;20029;-52
2022/11/04 04:36:11;;;;;;;6.07;3.00;;;;;;;9.64;100.00;100257.38;2616390;36;20057;-50
2022/11/04 04:47:00;;;;;;;10.23;3.90;;;;;;;9.73;100.00;100272.63;2615740;36;20038;-51
2022/11/04 04:49:33;;;;;;;6.15;3.53;;;;;;;9.75;100.00;100269.81;2616677;36;20026;-53
2022/11/04 04:52:08;;;;;;;7.25;3.53;;;;;;;9.68;100.00;100274.91;2615326;36;20138;-50
2022/11/04 04:54:39;;;;;;;7.05;3.58;;;;;;;9.69;100.00;100278.41;2616428;36;20034;-52
2022/11/04 04:57:07;;;;;;;8.75;4.30;;;;;;;9.60;100.00;100285.53;2616488;36;20035;-51
2022/11/04 04:59:36;;;;;;;6.97;4.00;;;;;;;9.46;100.00;100276.91;2615903;36;20351;-52
2022/11/04 05:02:07;;;;;;;6.65;3.95;;;;;;;9.41;100.00;100287.25;2613120;36;20041;-53
2022/11/04 05:04:42;;;;;;;6.13;4.03;;;;;;;9.48;100.00;100290.19;2616209;36;20292;-52
2022/11/04 05:07:41;;;;;;;7.53;4.15;;;;;;;9.58;100.00;100298.25;2615142;36;20023;-52
2022/11/04 05:10:17;;;;;;;8.18;4.50;;;;;;;9.59;100.00;100291.88;2615040;36;20054;-53
2022/11/04 05:15:27;;;;;;;7.32;3.90;;;;;;;9.63;100.00;100296.00;2615603;36;20030;-52
2022/11/04 05:17:56;;;;;;;13.80;4.90;;;;;;;9.62;100.00;100297.81;2616202;36;20400;-55
2022/11/04 05:20:25;;;;;;;7.78;4.35;;;;;;;9.55;100.00;100295.84;2616169;31;20505;-55
2022/11/04 05:22:56;;;;;;;8.48;4.60;;;;;;;9.56;100.00;100302.94;2615042;36;20057;-52
2022/11/04 05:25:25;;;;;;;10.18;5.10;;;;;;;9.51;100.00;100305.19;2615906;36;20066;-56
2022/11/04 05:27:53;;;;;;;11.43;4.82;;;;;;;9.59;100.00;100308.00;2615150;36;20038;-55
2022/11/04 05:30:24;;;;;;;9.85;5.32;;;;;;;9.59;100.00;100308.84;2614254;31;20030;-52
2022/11/04 05:32:53;;;;;;;11.98;5.78;;;;;;;9.62;100.00;100322.00;2616500;36;20034;-50
2022/11/04 05:35:21;;;;;;;9.45;6.13;;;;;;;9.51;100.00;100315.94;2615894;36;20034;-52
2022/11/04 05:37:49;;;;;;;12.45;5.57;;;;;;;9.53;100.00;100317.50;2616148;36;20030;-55
2022/11/04 05:40:20;;;;;;;11.40;6.45;;;;;;;9.48;100.00;100322.41;2615714;36;20581;-54
2022/11/04 05:42:49;;;;;;;13.52;7.03;;;;;;;9.51;100.00;100322.16;2616235;36;20162;-55
2022/11/04 05:45:17;;;;;;;14.20;7.15;;;;;;;9.53;100.00;100316.66;2614444;36;20058;-51
2022/11/04 05:47:46;;;;;;;14.90;7.63;;;;;;;9.51;100.00;100324.84;2614407;31;20030;-53
2022/11/04 05:50:14;;;;;;;15.35;7.07;;;;;;;9.55;100.00;100323.56;2613253;36;20044;-53
2022/11/04 05:52:42;;;;;;;15.77;7.63;;;;;;;9.56;100.00;100322.56;2615500;36;20045;-52
2022/11/04 05:55:11;;;;;;;18.35;7.82;;;;;;;9.50;100.00;100325.00;2614988;36;20029;-53
2022/11/04 05:57:42;;;;;;;18.45;8.32;;;;;;;9.33;100.00;100323.84;2616074;36;20042;-57
2022/11/04 06:00:13;;;;;;;16.77;8.40;;;;;;;9.35;100.00;100321.88;2615381;36;20083;-52
2022/11/04 06:02:41;;;;;;;22.95;9.13;;;;;;;9.33;100.00;100334.59;2614445;36;20030;-51
2022/11/04 06:05:10;;;;;;;19.13;9.43;;;;;;;9.28;100.00;100337.72;2615116;36;20563;-52
2022/11/04 06:07:39;;;;;;;21.23;9.43;;;;;;;9.27;100.00;100341.38;2612815;36;20035;-53
2022/11/04 06:10:08;;;;;;;23.23;10.02;;;;;;;9.39;100.00;100348.31;2614312;36;20571;-51
2022/11/04 06:12:36;;;;;;;;;;;;;;;9.41;100.00;100349.03;2614424;36;20038;-50
2022/11/04 06:15:08;;;;;;;21.75;10.85;;;;;;;9.32;100.00;100349.88;2613328;36;19954;-55
2022/11/04 06:17:36;;;;;;;27.65;13.23;;;;;;;9.50;100.00;100351.88;2611138;36;20046;-54
2022/11/04 06:20:05;;;;;;;32.03;14.25;;;;;;;9.40;100.00;100347.31;2613681;36;20042;-53
2022/11/04 06:22:35;;;;;;;26.02;12.45;;;;;;;9.51;100.00;100361.59;2613673;36;20022;-55
2022/11/04 06:25:03;;;;;;;30.45;14.00;;;;;;;9.49;100.00;100359.06;2613848;36;20026;-53
2022/11/04 06:27:31;;;;;;;34.75;14.65;;;;;;;9.56;100.00;100356.66;2615047;31;20029;-55
2022/11/04 06:29:59;;;;;;;35.28;14.73;;;;;;;9.50;100.00;100354.56;2611596;36;20063;-57
2022/11/04 06:32:30;;;;;;;37.00;14.70;;;;;;;9.40;100.00;100358.06;2610982;36;20054;-55
2022/11/04 06:34:59;;;;;;;36.97;15.10;;;;;;;9.37;100.00;100358.34;2614374;36;20408;-52
2022/11/04 06:37:27;;;;;;;38.72;15.48;;;;;;;9.37;100.00;100352.97;2613668;36;20042;-53
2022/11/04 06:39:55;;;;;;;35.55;15.80;;;;;;;9.39;100.00;100366.25;2613232;36;20031;-53
2022/11/04 06:42:25;;;;;;;42.22;17.52;;;;;;;9.58;100.00;100366.25;2612866;36;20069;-53
2022/11/04 06:44:54;;;;;;;38.38;15.63;;;;;;;9.56;100.00;100368.25;2610539;36;20651;-57
2022/11/04 06:47:22;;;;;;;39.85;16.50;;;;;;;9.67;100.00;100364.56;2612496;31;20023;-55
2022/11/04 06:49:53;;;;;;;40.13;17.70;;;;;;;9.47;100.00;100363.72;2611884;36;20031;-58
2022/11/04 06:52:21;;;;;;;38.10;17.45;;;;;;;9.57;100.00;100366.41;2614341;31;20081;-57
2022/11/04 06:54:49;;;;;;;41.70;17.40;;;;;;;9.65;100.00;100374.59;2612178;36;20045;-53
2022/11/04 06:57:17;;;;;;;40.08;17.55;;;;;;;9.69;100.00;100381.41;2611867;36;20034;-55
2022/11/04 06:59:46;;;;;;;42.05;18.83;;;;;;;9.53;100.00;100390.03;2607894;36;20077;-53
2022/11/04 07:02:14;;;;;;;38.45;19.05;;;;;;;9.35;100.00;100389.88;2611390;36;20030;-53
2022/11/04 07:04:42;;;;;;;40.90;19.20;;;;;;;9.49;100.00;100393.13;2604729;36;20038;-54
2022/11/04 07:07:13;;;;;;;40.85;18.70;;;;;;;9.52;100.00;100400.91;2608755;36;20042;-54
2022/11/04 07:09:42;;;;;;;43.92;21.42;;;;;;;9.35;100.00;100403.31;2608010;36;20039;-56
2022/11/04 07:12:10;;;;;;;41.57;20.90;;;;;;;9.27;100.00;100398.59;2610690;36;20041;-54
2022/11/04 07:14:38;;;;;;;40.22;19.45;;;;;;;9.38;100.00;100411.09;2606289;36;20041;-52
2022/11/04 07:17:07;;;;;;;38.40;18.55;;;;;;;9.38;100.00;100413.78;2607542;31;20038;-57
2022/11/04 07:19:35;;;;;;;42.13;19.33;;;;;;;9.42;100.00;100420.56;2607742;31;20125;-53
2022/11/04 07:22:04;;;;;;;36.25;18.40;;;;;;;9.39;100.00;100426.22;2606565;36;20035;-54
2022/11/04 07:24:35;;;;;;;43.63;19.63;;;;;;;9.49;100.00;100436.13;2607240;36;20069;-56
2022/11/04 07:27:03;;;;;;;37.00;18.35;;;;;;;9.37;100.00;100438.91;2607781;36;20023;-60
2022/11/04 07:29:31;;;;;;;36.95;17.58;;;;;;;9.43;100.00;100441.03;2610559;36;20061;-54
2022/11/04 07:31:59;;;;;;;43.72;19.90;;;;;;;9.46;100.00;100438.06;2608791;36;20424;-54
2022/11/04 07:34:28;;;;;;;39.45;18.95;;;;;;;9.49;100.00;100436.13;2611377;36;20035;-57
2022/11/04 07:36:56;;;;;;;35.33;17.67;;;;;;;9.56;100.00;100437.25;2614841;36;20042;-55
2022/11/04 07:39:24;;;;;;;32.33;17.02;;;;;;;9.52;100.00;100431.31;2614892;36;20038;-55
2022/11/04 07:41:55;;;;;;;36.83;17.08;;;;;;;9.73;100.00;100441.94;2614947;36;20041;-53
2022/11/04 07:44:24;;;;;;;34.72;15.98;;;;;;;9.66;100.00;100435.44;2613022;36;20053;-53
2022/11/04 07:46:52;;;;;;;28.60;15.38;;;;;;;9.77;100.00;100440.66;2614642;36;20042;-58
2022/11/04 07:49:20;;;;;;;31.77;14.95;;;;;;;9.80;100.00;100451.16;2612158;36;20034;-53
2022/11/04 07:51:50;;;;;;;28.42;14.65;;;;;;;9.93;100.00;100456.22;2612459;36;20030;-54
2022/11/04 07:54:18;;;;;;;30.65;17.15;;;;;;;10.33;100.00;100465.09;2612029;31;20046;-50
2022/11/04 07:56:46;;;;;;;28.25;15.20;;;;;;;10.32;100.00;100456.19;2615972;36;20026;-52
2022/11/04 07:59:17;;;;;;;27.40;13.68;;;;;;;10.23;100.00;100469.63;2615850;36;20404;-52
2022/11/04 08:01:45;;;;;;;27.15;14.80;;;;;;;10.05;100.00;100467.66;2616583;36;20046;-54
2022/11/04 08:04:17;;;;;;;27.92;14.50;;;;;;;10.16;100.00;100475.59;2616702;36;20026;-55
2022/11/04 08:06:45;;;;;;;25.35;12.77;;;;;;;10.41;100.00;100481.41;2617197;31;20046;-53
2022/11/04 08:09:13;;;;;;;30.90;14.88;;;;;;;10.55;100.00;100482.78;2617223;36;20057;-55
2022/11/04 08:11:44;;;;;;;25.30;13.00;;;;;;;10.51;100.00;100481.38;2617089;36;20566;-53
2022/11/04 08:14:12;;;;;;;23.30;13.35;;;;;;;10.44;100.00;100486.50;2616549;36;20029;-54
2022/11/04 08:16:43;;;;;;;25.55;12.90;;;;;;;10.40;100.00;100485.09;2604063;36;20235;-53
2022/11/04 08:19:11;;;;;;;26.90;13.15;;;;;;;10.56;100.00;100494.41;2610717;31;20022;-54
2022/11/04 08:21:40;;;;;;;22.40;14.18;;;;;;;10.61;100.00;100509.09;2612622;36;20035;-58
2022/11/04 08:24:08;;;;;;;25.00;11.32;;;;;;;10.72;100.00;100509.94;2612164;31;20046;-54
2022/11/04 08:26:37;;;;;;;24.38;13.25;;;;;;;10.65;100.00;100507.81;2612131;36;20035;-54
2022/11/04 08:29:08;;;;;;;24.23;13.02;;;;;;;10.71;100.00;100508.25;2613223;36;20040;-60
2022/11/04 08:31:39;;;;;;;22.15;11.73;;;;;;;10.75;100.00;100515.03;2612929;36;20030;-56
2022/11/04 08:34:10;;;;;;;26.92;12.43;;;;;;;10.89;100.00;100519.09;2612640;36;21169;-53
2022/11/04 08:36:40;;;;;;;22.15;12.68;;;;;;;10.99;100.00;100526.16;2615200;31;20424;-51
2022/11/04 08:39:09;;;;;;;23.58;12.05;;;;;;;11.05;100.00;100517.47;2613581;36;20038;-55
2022/11/04 08:41:39;;;;;;;33.28;14.27;;;;;;;10.87;100.00;100520.09;2615441;31;20039;-56
2022/11/04 08:44:08;;;;;;;22.63;12.10;;;;;;;11.02;100.00;100525.00;2614144;31;20037;-55
2022/11/04 08:46:39;;;;;;;21.50;12.20;;;;;;;10.98;100.00;100513.69;2613114;36;20042;-56
2022/11/04 08:49:11;;;;;;;25.52;13.90;;;;;;;10.97;100.00;100516.53;2614737;31;20057;-54
2022/11/04 08:51:42;;;;;;;25.02;14.05;;;;;;;11.02;100.00;100533.09;2614985;36;20035;-54
2022/11/04 08:54:11;;;;;;;28.90;14.07;;;;;;;10.74;100.00;100537.56;2612960;36;20056;-54
2022/11/04 08:56:40;;;;;;;24.45;13.32;;;;;;;10.64;100.00;100542.97;2614098;36;20030;-52
2022/11/04 08:59:09;;;;;;;;;;;;;;;10.75;100.00;100545.50;2615879;36;20496;-52
2022/11/04 09:01:38;;;;;;;30.00;14.02;;;;;;;10.98;100.00;100546.00;2611608;36;19951;-55
2022/11/04 09:04:07;;;;;;;28.15;13.13;;;;;;;11.16;100.00;100546.09;2609747;36;20535;-53
2022/11/04 09:06:41;;;;;;;22.95;12.52;;;;;;;11.21;100.00;100548.34;2612461;36;20069;-57
2022/11/04 09:09:13;;;;;;;24.23;13.82;;;;;;;11.22;100.00;100548.19;2614495;36;20627;-54
2022/11/04 09:11:43;;;;;;;27.23;13.45;;;;;;;11.39;100.00;100551.09;2615105;36;20043;-54
2022/11/04 09:14:12;;;;;;;25.52;14.68;;;;;;;11.52;100.00;100548.88;2615416;36;20053;-55
2022/11/04 09:16:43;;;;;;;23.60;14.23;;;;;;;11.32;100.00;100547.28;2616447;31;20037;-55
2022/11/04 09:19:11;;;;;;;24.15;14.35;;;;;;;11.63;100.00;100547.84;2616387;36;20022;-55
2022/11/04 09:21:42;;;;;;;30.73;16.10;;;;;;;11.66;100.00;100552.06;2616437;36;20664;-56
2022/11/04 09:24:11;;;;;;;28.48;15.30;;;;;;;12.03;100.00;100548.50;2615710;36;20034;-56
2022/11/04 09:26:39;;;;;;;25.50;15.85;;;;;;;12.06;100.00;100543.63;2616307;36;20037;-52
2022/11/04 09:29:08;;;;;;;25.25;15.20;;;;;;;12.06;100.00;100553.56;2616314;36;20448;-54
2022/11/04 09:31:36;;;;;;;26.98;15.82;;;;;;;12.04;100.00;100555.56;2614977;36;20423;-54
2022/11/04 09:34:05;;;;;;;43.15;15.32;;;;;;;11.88;100.00;100567.84;2616165;36;20033;-53
2022/11/04 09:36:33;;;;;;;25.30;14.33;;;;;;;11.82;100.00;100578.38;2616599;36;20459;-54
2022/11/04 09:39:04;;;;;;;25.08;13.63;;;;;;;11.79;100.00;100571.44;2616593;36;20662;-51
2022/11/04 09:41:55;;;;;;;21.20;13.93;;;;;;;11.74;100.00;100573.75;2616580;36;20023;-52
2022/11/04 09:44:27;;;;;;;26.00;14.00;;;;;;;11.77;100.00;100575.31;2616700;31;20035;-52
2022/11/04 09:46:59;;;;;;;27.23;12.90;;;;;;;11.83;100.00;100577.38;2615751;36;20022;-54
2022/11/04 09:49:30;;;;;;;27.77;13.68;;;;;;;12.07;100.00;100583.09;2615747;36;20026;-54
2022/11/04 09:52:00;;;;;;;23.35;14.25;;;;;;;12.12;100.00;100587.16;2615575;36;20027;-53
2022/11/04 09:54:36;;;;;;;20.95;13.10;;;;;;;12.25;100.00;100585.78;2616636;31;20034;-55
2022/11/04 09:57:05;;;;;;;20.20;12.35;;;;;;;12.38;100.00;100589.94;2616442;36;20026;-55
2022/11/04 09:59:34;;;;;;;;;;;;;;;12.16;100.00;100588.53;2616812;36;20029;-53
2022/11/04 10:02:17;;;;;;;21.33;13.43;;;;;;;12.27;100.00;100597.25;2616473;36;19958;-53
2022/11/04 10:04:54;;;;;;;20.70;11.93;;;;;;;12.25;100.00;100590.34;2616922;31;20038;-53
2022/11/04 10:07:39;;;;;;;22.30;12.68;;;;;;;12.21;100.00;100600.59;2616684;36;20558;-53
2022/11/04 10:10:19;;;;;;;21.48;12.73;;;;;;;12.21;100.00;100607.84;2617599;36;20049;-55
2022/11/04 10:13:17;;;;;;;22.40;13.38;;;;;;;12.22;100.00;100612.22;2616369;36;20026;-51
2022/11/04 10:16:20;;;;;;;24.38;14.10;;;;;;;12.40;100.00;100609.53;2616235;36;20026;-56
2022/11/04 10:19:14;;;;;;;25.70;14.00;;;;;;;12.43;100.00;100615.47;2616242;36;20574;-54
2022/11/04 10:21:49;;;;;;;25.05;14.45;;;;;;;12.69;100.00;100620.09;2616354;36;20117;-51
2022/11/04 10:24:25;;;;;;;21.50;14.02;;;;;;;12.73;100.00;100616.06;2615786;36;20069;-55
2022/11/04 10:27:01;;;;;;;28.17;14.48;;;;;;;12.99;100.00;100626.06;2615291;36;20038;-54
2022/11/04 10:29:35;;;;;;;20.95;13.70;;;;;;;13.13;100.00;100627.34;2616009;36;20027;-51
2022/11/04 10:32:08;;;;;;;25.77;13.75;;;;;;;12.96;100.00;100632.63;2615329;36;20053;-56
2022/11/04 10:34:41;;;;;;;17.95;11.40;;;;;;;13.03;100.00;100632.00;2616255;31;20542;-54
2022/11/04 10:37:12;;;;;;;22.73;12.13;;;;;;;13.04;100.00;100633.69;2616398;31;20022;-54
2022/11/04 10:39:45;;;;;;;19.38;11.68;;;;;;;13.19;100.00;100640.25;2615238;36;20631;-54
2022/11/04 10:42:20;;;;;;;17.33;10.25;;;;;;;12.82;100.00;100638.59;2616324;36;20039;-52
2022/11/04 10:44:51;;;;;;;18.50;9.98;;;;;;;13.08;100.00;100645.88;2616656;36;20023;-49
2022/11/04 10:47:32;;;;;;;18.15;10.32;;;;;;;13.18;100.00;100652.03;2616814;31;20603;-51
2022/11/04 10:50:25;;;;;;;19.48;11.38;;;;;;;13.23;100.00;100654.25;2616565;36;20073;-55
2022/11/04 10:52:57;;;;;;;20.10;10.30;;;;;;;13.19;100.00;100664.56;2615623;31;20035;-50
2022/11/04 10:55:36;;;;;;;16.45;10.27;;;;;;;12.91;100.00;100658.41;2616533;36;20122;-55
2022/11/04 10:58:16;;;;;;;20.13;10.38;;;;;;;12.91;100.00;100661.97;2608082;31;20562;-50
2022/11/04 11:00:44;;;;;;;20.40;10.25;;;;;;;12.94;100.00;100669.78;2609783;36;20030;-50
2022/11/04 11:03:28;;;;;;;14.90;9.98;;;;;;;13.08;100.00;100670.22;2602672;36;20034;-54
2022/11/04 11:06:13;;;;;;;16.95;11.00;;;;;;;13.06;100.00;100683.88;2614890;36;20038;-51
2022/11/04 11:08:43;;;;;;;15.90;9.98;;;;;;;12.84;100.00;100687.91;2614456;36;20145;-52
2022/11/04 11:11:14;;;;;;;16.25;9.98;;;;;;;13.12;100.00;100694.06;2613899;36;20046;-50
2022/11/04 11:13:46;;;;;;;19.17;10.00;;;;;;;13.10;100.00;100692.50;2613455;36;20041;-53
2022/11/04 11:16:20;;;;;;;16.00;10.43;;;;;;;13.02;100.00;100682.47;2611048;36;20035;-52
2022/11/04 11:19:14;;;;;;;19.13;11.32;;;;;;;12.86;100.00;100680.50;2613616;36;20035;-49
2022/11/04 11:21:47;;;;;;;18.80;9.93;;;;;;;12.74;100.00;100693.38;2612053;36;20431;-53
2022/11/04 11:24:19;;;;;;;17.77;10.43;;;;;;;12.93;100.00;100686.97;2613601;36;20438;-48
2022/11/04 11:26:49;;;;;;;16.27;10.30;;;;;;;12.76;100.00;100686.00;2610711;36;20461;-54
2022/11/04 11:29:26;;;;;;;15.52;9.50;;;;;;;13.15;100.00;100688.31;2611695;36;20505;-50
2022/11/04 11:31:55;;;;;;;18.52;11.45;;;;;;;13.12;100.00;100685.09;2613508;36;20038;-51
2022/11/04 11:34:27;;;;;;;18.17;9.55;;;;;;;13.20;100.00;100690.56;2615348;31;20041;-48
2022/11/04 11:36:58;;;;;;;20.77;11.82;;;;;;;13.14;100.00;100693.88;2615483;36;20038;-50
2022/11/04 11:39:28;;;;;;;13.98;10.07;;;;;;;12.93;100.00;100699.63;2615562;36;20026;-50
2022/11/04 11:42:00;;;;;;;15.73;10.18;;;;;;;13.24;100.00;100702.75;2614961;36;20026;-50
2022/11/04 11:44:37;;;;;;;17.17;9.65;;;;;;;13.55;100.00;100713.13;2614937;36;20042;-48
2022/11/04 11:47:08;;;;;;;14.70;10.38;;;;;;;13.75;100.00;100708.38;2616200;36;20423;-51
2022/11/04 11:49:38;;;;;;;13.32;9.15;;;;;;;13.79;100.00;100707.00;2615186;31;20030;-52
2022/11/04 11:52:27;;;;;;;14.00;9.27;;;;;;;13.71;100.00;100706.16;2614984;36;20030;-54
2022/11/04 11:55:00;;;;;;;13.63;8.70;;;;;;;13.83;100.00;100711.09;2616049;31;20038;-53
2022/11/04 11:57:43;;;;;;;14.45;9.02;;;;;;;13.61;100.00;100706.25;2614485;36;20113;-56
2022/11/04 12:00:17;;;;;;;14.27;9.40;;;;;;;13.41;100.00;100702.91;2616182;36;20458;-50
2022/11/04 12:02:57;;;;;;;16.30;9.50;;;;;;;13.50;100.00;100704.66;2615417;36;20045;-51
2022/11/04 12:05:32;;;;;;;13.55;9.05;;;;;;;13.73;100.00;100698.72;2615810;36;20022;-48
2022/11/04 12:08:12;;;;;;;11.73;8.32;;;;;;;13.77;100.00;100703.63;2615000;36;20029;-50
2022/11/04 12:10:46;;;;;;;14.32;8.43;;;;;;;13.78;100.00;100707.16;2616116;31;20443;-52